Catàleg de serveis del Meteocat

Dades de l'estació automàtica Port de Barcelona - Bocana Sud

?
?
Resum diari 22:30 TU
Dades diàries de l'estació meteorològica
Ratxa màxima del vent (10 m) 61.2 km/h - 37º 13:26 TU

El tram horari està expressat en Temps Universal (TU). Cal sumar una hora en horari d'hivern i dues en horari d'estiu per passar a l'hora oficial.

Port de Barcelona - Bocana Sud

Metadades estació meteorol´gica
Municipi El Prat de Llobregat
Comarca Baix Llobregat
Altitud 3 m
Data alta 08.04.2015
Estat actual Operativa
Dades de període
Període
TU
VVM (10 m)
km/h
DVM (10 m)
graus
VVX (10 m)
km/h
00:00 - 00:30 33.1 43 44.6
00:30 - 01:00 32.4 46 42.8
01:00 - 01:30 29.9 42 45.0
01:30 - 02:00 35.3 46 48.2
02:00 - 02:30 33.8 48 45.0
02:30 - 03:00 34.6 39 43.9
03:00 - 03:30 34.9 39 47.5
03:30 - 04:00 27.4 34 37.4
04:00 - 04:30 29.9 36 43.6
04:30 - 05:00 30.6 38 47.5
05:00 - 05:30 35.3 39 46.1
05:30 - 06:00 31.0 38 41.8
06:00 - 06:30 32.0 42 48.2
06:30 - 07:00 31.7 51 46.1
07:00 - 07:30 31.7 40 45.0
07:30 - 08:00 28.8 20 37.4
08:00 - 08:30 34.2 17 42.8
08:30 - 09:00 33.1 29 43.2
09:00 - 09:30 37.1 33 48.6
09:30 - 10:00 40.3 36 56.9
10:00 - 10:30 42.5 38 58.7
10:30 - 11:00 41.0 38 54.7
11:00 - 11:30 39.2 37 53.6
11:30 - 12:00 41.0 36 53.3
12:00 - 12:30 41.8 35 51.5
12:30 - 13:00 41.0 34 52.9
13:00 - 13:30 45.7 36 61.2
13:30 - 14:00 44.3 41 58.7
14:00 - 14:30 41.0 52 58.3
14:30 - 15:00 40.0 48 54.7
15:00 - 15:30 37.1 52 52.6
15:30 - 16:00 41.4 58 58.3
16:00 - 16:30 46.1 73 55.8
16:30 - 17:00 43.6 78 51.5
17:00 - 17:30 35.3 59 55.1
17:30 - 18:00 43.2 58 56.5
18:00 - 18:30 50.8 73 60.5
18:30 - 19:00 49.3 68 60.8
19:00 - 19:30 48.6 71 60.5
19:30 - 20:00 48.6 68 59.4
20:00 - 20:30 49.3 71 61.2
20:30 - 21:00 47.9 69 59.8
21:00 - 21:30 43.2 63 56.9
21:30 - 22:00 44.3 64 56.9
22:00 - 22:30 43.2 65 55.8
22:30 - 23:00 40.0 60 50.8
23:00 - 23:30 (s/d) (s/d) (s/d)

Les dades en taronja només han passat un control de qualitat automàtic. Resta pendent la seva validació definitiva.